Archival Weather

Half Moon Bay

Half Moon Bay, California (KHAF)

Report from: Thursday, September 21, 2023 3:35 AM PDT
Current time: Saturday, February 24, 2024 7:03 AM PST

Current weather – Weather history – Daily summaries
Weather forecast

Temperature14.0°C (57.2°F)
Dew point12.0°C (53.6°F)
Winds 6 kts (3.1 m/s, 6.9 mph) Southeast (140°)
Visibility4 mi. (6.4 km)
Altimeter29.85 in.Hg (1011 mB)
Relative humidity88 %
Density altitude160 ft. (49 m)
Remarks Fully automated report
Automated weather observing station with precipitation discriminator
Flight conditions Marginal Visual Meteorological Conditions
Raw dataKHAF 211035Z AUTO 14006KT 4SM HZ 14/12 A2985 RMK AO2
An error has occurred. This application may no longer respond until reloaded. Reload 🗙